createdAt,value
2022-11-27T00:02:23.784Z,-0.72
2022-11-27T00:07:30.467Z,-0.65
2022-11-27T00:12:36.535Z,-0.56
2022-11-27T00:17:41.447Z,-0.46
2022-11-27T00:22:48.379Z,-0.36
2022-11-27T00:27:55.021Z,-0.25
2022-11-27T00:33:00.168Z,-0.14
2022-11-27T00:38:10.946Z,0.00
2022-11-27T00:43:17.397Z,0.14
2022-11-27T00:48:22.757Z,0.27
2022-11-27T00:53:27.666Z,0.41
2022-11-27T00:58:32.966Z,0.56
2022-11-27T01:03:39.157Z,0.75
2022-11-27T01:08:44.830Z,0.94
2022-11-27T01:13:50.706Z,1.10
2022-11-27T01:19:00.036Z,1.17
2022-11-27T01:24:06.473Z,1.21
2022-11-27T01:29:11.901Z,1.29
2022-11-27T01:34:20.097Z,1.47
2022-11-27T01:39:26.432Z,1.68
2022-11-27T01:44:33.160Z,1.86
2022-11-27T01:49:50.927Z,2.02
2022-11-27T01:55:11.438Z,2.12
2022-11-27T02:00:18.775Z,2.24
2022-11-27T02:05:27.660Z,2.37
2022-11-27T02:10:53.570Z,2.58
2022-11-27T02:16:01.600Z,2.77
2022-11-27T02:21:28.980Z,2.96
2022-11-27T02:26:53.443Z,3.14
2022-11-27T02:32:37.996Z,3.42
2022-11-27T02:37:52.233Z,3.60
2022-11-27T02:43:03.676Z,3.68
2022-11-27T02:48:12.589Z,3.78
2022-11-27T02:53:31.564Z,3.92
2022-11-27T02:58:39.957Z,4.06
2022-11-27T03:03:50.153Z,4.09
2022-11-27T03:09:13.018Z,4.17
2022-11-27T03:14:21.767Z,4.31
2022-11-27T03:19:59.206Z,4.33
2022-11-27T03:25:05.590Z,4.30
2022-11-27T03:30:16.489Z,4.31
2022-11-27T03:35:26.656Z,4.38
2022-11-27T03:40:47.503Z,4.44
2022-11-27T03:46:03.630Z,4.45
2022-11-27T03:51:42.839Z,4.50
2022-11-27T03:57:20.036Z,4.60
2022-11-27T04:02:47.969Z,4.70
2022-11-27T04:07:54.004Z,4.87
2022-11-27T04:12:59.702Z,5.05
2022-11-27T04:18:05.691Z,5.23
2022-11-27T04:23:12.117Z,5.23
2022-11-27T04:28:19.609Z,5.13
2022-11-27T04:33:27.190Z,5.11
2022-11-27T04:38:33.618Z,5.06
2022-11-27T04:43:40.187Z,5.10
2022-11-27T04:48:45.508Z,5.18
2022-11-27T04:53:50.912Z,5.26
2022-11-27T04:58:56.509Z,5.35
2022-11-27T05:04:02.083Z,5.43
2022-11-27T05:09:07.477Z,5.52
2022-11-27T05:14:19.645Z,5.67
2022-11-27T05:19:27.380Z,5.83
2022-11-27T05:24:38.070Z,5.97
2022-11-27T05:29:46.602Z,6.05
2022-11-27T05:34:54.847Z,6.20
2022-11-27T05:40:02.567Z,6.31
2022-11-27T05:45:14.085Z,6.42
2022-11-27T05:50:19.519Z,6.50
2022-11-27T05:55:24.873Z,6.56
2022-11-27T06:00:30.192Z,6.64
2022-11-27T06:05:35.523Z,6.62
2022-11-27T06:10:42.065Z,6.64
2022-11-27T06:15:47.575Z,6.65
2022-11-27T06:20:53.200Z,6.67
2022-11-27T06:25:58.651Z,6.66
2022-11-27T06:31:17.287Z,6.61
2022-11-27T06:36:27.324Z,6.58
2022-11-27T06:41:33.463Z,6.53
2022-11-27T06:46:39.965Z,6.43
2022-11-27T06:51:45.855Z,6.34
2022-11-27T06:56:52.604Z,6.30
2022-11-27T07:01:59.249Z,6.25
2022-11-27T07:07:08.801Z,6.17
2022-11-27T07:12:15.598Z,6.11
2022-11-27T07:17:21.018Z,6.12
2022-11-27T07:22:26.376Z,6.14
2022-11-27T07:27:32.666Z,6.05
2022-11-27T07:32:38.704Z,5.96
2022-11-27T07:37:44.602Z,5.91
2022-11-27T07:42:51.150Z,5.83
2022-11-27T07:47:57.553Z,5.72
2022-11-27T07:53:04.213Z,5.67
2022-11-27T07:58:12.136Z,5.59
2022-11-27T08:03:18.287Z,5.62
2022-11-27T08:08:31.914Z,5.57
2022-11-27T08:13:38.516Z,5.47
2022-11-27T08:18:44.179Z,5.40
2022-11-27T08:23:50.584Z,5.33
2022-11-27T08:28:58.955Z,5.32
2022-11-27T08:34:05.746Z,5.26
2022-11-27T08:39:12.428Z,5.24
2022-11-27T08:44:18.538Z,5.20
2022-11-27T08:49:24.972Z,5.15
2022-11-27T08:54:32.295Z,5.08
2022-11-27T08:59:38.828Z,5.00
2022-11-27T09:04:44.347Z,4.95
2022-11-27T09:09:50.160Z,4.89
2022-11-27T09:14:55.620Z,4.84
2022-11-27T09:20:00.916Z,4.84
2022-11-27T09:25:06.589Z,4.81
2022-11-27T09:30:12.661Z,4.73
2022-11-27T09:35:18.329Z,4.73
2022-11-27T09:40:23.728Z,4.70
2022-11-27T09:45:29.859Z,4.64
2022-11-27T09:50:39.023Z,4.61
2022-11-27T09:55:45.386Z,4.59
2022-11-27T10:00:50.787Z,4.57
2022-11-27T10:06:29.370Z,4.62
2022-11-27T10:11:57.521Z,4.69
2022-11-27T10:17:47.008Z,4.66
2022-11-27T10:23:34.544Z,4.64
2022-11-27T10:28:48.924Z,4.61
2022-11-27T10:34:02.804Z,4.58
2022-11-27T10:39:15.954Z,4.55
2022-11-27T10:44:39.701Z,4.54
2022-11-27T10:49:46.252Z,4.48
2022-11-27T10:55:00.658Z,4.48
2022-11-27T11:00:22.016Z,4.48
2022-11-27T11:05:41.393Z,4.55
2022-11-27T11:11:01.429Z,4.66
2022-11-27T11:16:17.469Z,4.67
2022-11-27T11:21:32.264Z,4.64
2022-11-27T11:26:46.565Z,4.61
2022-11-27T11:31:52.315Z,4.61
2022-11-27T11:37:04.174Z,4.57
2022-11-27T11:42:24.485Z,4.54
2022-11-27T11:47:31.493Z,4.57
2022-11-27T11:53:01.039Z,4.58
2022-11-27T11:58:33.753Z,4.56
2022-11-27T12:03:59.225Z,4.52
2022-11-27T12:09:32.759Z,4.32
2022-11-27T12:14:41.335Z,4.16
2022-11-27T12:20:02.149Z,3.91
2022-11-27T12:25:41.428Z,3.65
2022-11-27T12:30:56.633Z,3.50
2022-11-27T12:36:27.600Z,3.36
2022-11-27T12:41:56.663Z,3.23
2022-11-27T12:47:27.802Z,3.23
2022-11-27T12:53:02.760Z,3.19
2022-11-27T12:58:39.506Z,3.12
2022-11-27T13:04:08.285Z,3.01
2022-11-27T13:09:23.345Z,3.08
2022-11-27T13:14:32.327Z,3.28
2022-11-27T13:19:37.770Z,3.42
2022-11-27T13:24:46.497Z,3.47
2022-11-27T13:29:59.920Z,3.49
2022-11-27T13:35:31.297Z,3.55
2022-11-27T13:40:46.552Z,3.61
2022-11-27T13:45:53.346Z,3.62
2022-11-27T13:51:00.362Z,3.53
2022-11-27T13:56:12.917Z,3.38
2022-11-27T14:01:27.002Z,3.28
2022-11-27T14:06:35.049Z,3.23
2022-11-27T14:11:44.656Z,3.32
2022-11-27T14:17:10.648Z,3.38
2022-11-27T14:23:14.425Z,3.36
2022-11-27T14:28:16.732Z,3.35
2022-11-27T14:33:29.725Z,3.31
2022-11-27T14:38:37.075Z,3.31
2022-11-27T14:43:44.931Z,3.33
2022-11-27T14:49:01.650Z,3.28
2022-11-27T14:54:44.245Z,3.13
2022-11-27T14:59:50.875Z,2.96
2022-11-27T15:05:08.491Z,2.80
2022-11-27T15:10:39.905Z,2.81
2022-11-27T15:15:58.357Z,2.78
2022-11-27T15:21:11.257Z,2.74
2022-11-27T15:26:30.579Z,2.70
2022-11-27T15:31:38.726Z,2.61
2022-11-27T15:36:55.655Z,2.53
2022-11-27T15:42:03.662Z,2.47
2022-11-27T15:47:24.041Z,2.44
2022-11-27T15:52:29.736Z,2.31
2022-11-27T15:57:35.219Z,2.22
2022-11-27T16:02:40.902Z,2.21
2022-11-27T16:07:47.536Z,2.21
2022-11-27T16:12:56.566Z,2.21
2022-11-27T16:18:05.411Z,2.19
2022-11-27T16:23:19.644Z,2.16
2022-11-27T16:28:24.966Z,2.18
2022-11-27T16:33:35.011Z,2.30
2022-11-27T16:38:40.848Z,2.40
2022-11-27T16:43:51.636Z,2.51
2022-11-27T16:49:00.440Z,2.53
2022-11-27T16:54:08.422Z,2.50
2022-11-27T16:59:16.815Z,2.44
2022-11-27T17:04:23.575Z,2.41
2022-11-27T17:09:30.920Z,2.46
2022-11-27T17:14:38.415Z,2.59
2022-11-27T17:19:45.835Z,2.67
2022-11-27T17:24:53.238Z,2.78
2022-11-27T17:29:59.599Z,2.86
2022-11-27T17:35:05.853Z,2.96
2022-11-27T17:40:11.875Z,2.99
2022-11-27T17:45:17.450Z,3.03
2022-11-27T17:50:22.822Z,3.00
2022-11-27T17:55:28.729Z,2.91
2022-11-27T18:00:37.234Z,2.87
2022-11-27T18:05:42.910Z,2.83
2022-11-27T18:10:50.633Z,2.91
2022-11-27T18:15:56.522Z,2.98
2022-11-27T18:21:08.478Z,3.11
2022-11-27T18:26:17.268Z,3.16
2022-11-27T18:31:22.905Z,3.22
2022-11-27T18:36:28.398Z,3.30
2022-11-27T18:41:33.667Z,3.37
2022-11-27T18:46:39.942Z,3.39
2022-11-27T18:51:46.378Z,3.34
2022-11-27T18:56:51.811Z,3.22
2022-11-27T19:01:57.273Z,3.14
2022-11-27T19:07:02.815Z,3.09
2022-11-27T19:12:08.745Z,3.15
2022-11-27T19:17:13.967Z,3.22
2022-11-27T19:22:21.148Z,3.26
2022-11-27T19:27:26.507Z,3.27
2022-11-27T19:32:31.803Z,3.22
2022-11-27T19:37:38.284Z,3.19
2022-11-27T19:42:43.836Z,3.16
2022-11-27T19:47:49.314Z,3.18
2022-11-27T19:52:56.688Z,3.05
2022-11-27T19:58:02.428Z,2.95
2022-11-27T20:03:08.198Z,2.88
2022-11-27T20:08:13.692Z,2.88
2022-11-27T20:13:19.233Z,2.95
2022-11-27T20:18:24.705Z,2.99
2022-11-27T20:23:31.540Z,3.03
2022-11-27T20:28:38.273Z,3.06
2022-11-27T20:33:43.964Z,3.07
2022-11-27T20:38:49.663Z,3.02
2022-11-27T20:44:01.178Z,3.03
2022-11-27T20:49:07.320Z,2.93
2022-11-27T20:54:14.056Z,2.68
2022-11-27T20:59:20.404Z,2.48
2022-11-27T21:04:28.440Z,2.30
2022-11-27T21:09:33.936Z,2.14
2022-11-27T21:14:40.865Z,2.18
2022-11-27T21:19:46.717Z,2.20
2022-11-27T21:24:53.107Z,2.19
2022-11-27T21:29:58.786Z,2.18
2022-11-27T21:35:05.211Z,2.15
2022-11-27T21:40:11.395Z,2.11
2022-11-27T21:45:16.667Z,2.03
2022-11-27T21:50:22.161Z,2.01
2022-11-27T21:55:30.858Z,1.94
2022-11-27T22:00:36.891Z,1.89
2022-11-27T22:05:42.192Z,1.87
2022-11-27T22:10:47.675Z,1.88
2022-11-27T22:15:53.460Z,1.97
2022-11-27T22:20:59.963Z,2.03
2022-11-27T22:26:07.257Z,2.08
2022-11-27T22:31:16.094Z,2.14
2022-11-27T22:36:35.581Z,2.22
2022-11-27T22:41:42.074Z,2.28
2022-11-27T22:46:47.802Z,2.28
2022-11-27T22:51:54.218Z,2.25
2022-11-27T22:56:59.880Z,2.13
2022-11-27T23:02:07.497Z,1.99
2022-11-27T23:07:13.130Z,1.88
2022-11-27T23:12:18.503Z,1.84
2022-11-27T23:17:23.841Z,1.92
2022-11-27T23:22:29.364Z,2.02
2022-11-27T23:27:34.679Z,2.08
2022-11-27T23:32:41.524Z,2.16
2022-11-27T23:37:47.127Z,2.22
2022-11-27T23:42:52.676Z,2.27
2022-11-27T23:47:58.045Z,2.28
2022-11-27T23:53:03.589Z,2.31
2022-11-27T23:58:08.874Z,2.34
